Time;durP1;ratioP1;P1;durP2;ratioP2;P2;SDS_P1;SDS_P2;PMS_P1;PMS_P2;Temp;Humidity;BMP_temperature;BMP_pressure;BME280_temperature;BME280_humidity;BME280_pressure;Samples;Min_cycle;Max_cycle;Signal;HPM_P1;HPM_P2
2022/07/28 00:02:37;;;;;;;1.90;0.90;;;22.30;55.60;;;;;;10372329;28;20393;-50
2022/07/28 00:07:38;;;;;;;1.77;1.13;;;22.30;55.50;;;;;;10372777;28;20116;-48
2022/07/28 00:12:39;;;;;;;2.17;0.88;;;22.30;55.50;;;;;;10354389;28;20105;-49
2022/07/28 00:17:40;;;;;;;1.80;0.93;;;22.30;55.50;;;;;;10370833;28;20038;-48
2022/07/28 00:22:42;;;;;;;2.08;0.75;;;22.30;55.40;;;;;;10376695;28;20026;-48
2022/07/28 00:27:43;;;;;;;1.67;0.75;;;22.30;55.40;;;;;;10409368;28;20497;-47
2022/07/28 00:32:45;;;;;;;4.05;0.98;;;22.30;55.50;;;;;;10382759;28;20110;-48
2022/07/28 00:37:46;;;;;;;2.85;0.93;;;22.30;55.50;;;;;;10371464;28;20034;-48
2022/07/28 00:42:47;;;;;;;3.08;0.73;;;22.20;55.30;;;;;;10370490;28;20100;-51
2022/07/28 00:47:47;;;;;;;1.73;0.80;;;22.30;55.40;;;;;;10405110;28;20034;-51
2022/07/28 00:52:48;;;;;;;3.47;1.00;;;22.20;55.30;;;;;;10370581;28;20061;-49
2022/07/28 00:57:49;;;;;;;1.15;0.63;;;22.20;55.30;;;;;;10369125;28;20053;-50
2022/07/28 01:02:50;;;;;;;2.97;1.20;;;22.20;55.30;;;;;;10394572;28;20439;-47
2022/07/28 01:08:04;;;;;;;1.75;0.90;;;22.20;55.30;;;;;;10400894;28;20044;-48
2022/07/28 01:13:48;;;;;;;1.92;1.00;;;22.20;55.30;;;;;;10368421;28;20655;-47
2022/07/28 01:19:18;;;;;;;1.38;0.80;;;22.20;55.30;;;;;;10369284;28;20036;-48
2022/07/28 01:25:05;;;;;;;1.80;0.82;;;22.20;55.30;;;;;;10377424;28;20046;-50
2022/07/28 01:30:42;;;;;;;1.63;0.77;;;22.20;55.20;;;;;;10400249;28;20456;-49
2022/07/28 01:35:50;;;;;;;2.17;0.85;;;22.20;55.30;;;;;;10368379;28;20037;-47
2022/07/28 01:40:53;;;;;;;1.48;0.70;;;22.10;55.10;;;;;;10367767;28;20042;-48
2022/07/28 01:45:55;;;;;;;2.00;1.08;;;22.20;55.10;;;;;;10390556;28;20035;-47
2022/07/28 01:50:56;;;;;;;0.88;0.65;;;22.10;55.10;;;;;;10395025;28;20045;-47
2022/07/28 01:56:02;;;;;;;1.65;0.82;;;22.10;55.00;;;;;;10408027;28;20057;-47
2022/07/28 02:01:03;;;;;;;2.30;0.77;;;22.10;55.00;;;;;;10408732;28;20554;-49
2022/07/28 02:06:06;;;;;;;1.90;0.93;;;22.10;55.00;;;;;;10388070;28;20037;-46
2022/07/28 02:16:28;;;;;;;1.20;0.90;;;22.10;55.00;;;;;;10378214;28;20053;-52
2022/07/28 02:21:30;;;;;;;2.00;1.00;;;22.10;54.90;;;;;;10389823;28;20046;-49
2022/07/28 02:26:36;;;;;;;2.88;1.30;;;22.10;54.90;;;;;;10415524;28;20057;-51
2022/07/28 02:31:49;;;;;;;1.23;0.90;;;22.10;54.80;;;;;;10396016;28;20032;-50
2022/07/28 02:37:01;;;;;;;2.05;1.00;;;22.10;54.80;;;;;;10380234;28;20041;-50
2022/07/28 02:42:12;;;;;;;2.40;0.75;;;22.10;54.80;;;;;;10365869;28;20077;-49
2022/07/28 02:47:20;;;;;;;1.40;0.90;;;22.00;54.70;;;;;;10367687;28;20034;-48
2022/07/28 02:52:24;;;;;;;1.10;0.80;;;22.00;54.80;;;;;;10367055;28;20030;-51
2022/07/28 02:57:25;;;;;;;1.98;0.85;;;22.00;54.80;;;;;;10391066;28;20109;-49
2022/07/28 03:02:29;;;;;;;1.77;0.75;;;22.00;54.70;;;;;;10380122;28;20032;-51
2022/07/28 03:07:32;;;;;;;1.25;0.73;;;22.00;54.70;;;;;;10385650;28;20052;-48
2022/07/28 03:12:33;;;;;;;1.92;0.90;;;22.00;54.70;;;;;;10400558;28;20361;-48
2022/07/28 03:17:33;;;;;;;2.25;0.82;;;22.00;54.60;;;;;;10412700;28;20044;-49
2022/07/28 03:22:34;;;;;;;1.38;0.80;;;22.00;54.60;;;;;;10390050;28;20112;-49
2022/07/28 03:27:44;;;;;;;2.40;1.02;;;22.00;54.70;;;;;;10376772;28;20033;-47
2022/07/28 03:32:52;;;;;;;1.92;1.10;;;21.90;54.60;;;;;;10397757;28;20038;-47
2022/07/28 03:38:15;;;;;;;1.73;1.20;;;22.00;54.70;;;;;;10393177;28;20049;-47
2022/07/28 03:43:20;;;;;;;1.05;0.90;;;21.90;54.60;;;;;;10385780;28;20159;-50
2022/07/28 03:48:27;;;;;;;1.33;0.88;;;21.90;54.60;;;;;;10388743;28;20034;-49
2022/07/28 03:53:28;;;;;;;1.80;1.02;;;21.90;54.60;;;;;;10384313;28;20473;-47
2022/07/28 03:58:29;;;;;;;1.52;0.90;;;21.90;54.60;;;;;;10394189;28;20040;-48
2022/07/28 04:03:30;;;;;;;2.38;1.10;;;21.90;54.50;;;;;;10390442;28;20030;-47
2022/07/28 04:08:31;;;;;;;1.23;0.82;;;21.90;54.60;;;;;;10398863;28;20053;-47
2022/07/28 04:13:33;;;;;;;1.65;0.80;;;21.90;54.60;;;;;;10388865;28;20030;-49
2022/07/28 04:18:34;;;;;;;1.88;0.93;;;21.90;54.60;;;;;;10391003;28;20053;-47
2022/07/28 04:23:34;;;;;;;2.28;0.93;;;21.80;54.60;;;;;;10389354;28;20033;-48
2022/07/28 04:28:35;;;;;;;1.33;0.60;;;21.90;54.70;;;;;;10400062;28;20033;-52
2022/07/28 04:33:36;;;;;;;2.03;1.17;;;21.90;54.70;;;;;;10398618;28;21108;-50
2022/07/28 04:38:37;;;;;;;1.95;0.98;;;21.80;54.60;;;;;;10410901;28;20033;-48
2022/07/28 04:43:37;;;;;;;1.60;1.30;;;21.80;54.60;;;;;;10381719;28;20670;-52
2022/07/28 04:48:38;;;;;;;1.92;1.20;;;21.80;54.70;;;;;;10385756;28;20113;-48
2022/07/28 04:53:39;;;;;;;2.25;0.95;;;21.90;55.90;;;;;;10386183;28;20101;-47
2022/07/28 04:58:41;;;;;;;3.05;1.10;;;21.90;56.30;;;;;;10386143;28;20398;-52
2022/07/28 05:03:42;;;;;;;6.82;1.20;;;21.90;56.20;;;;;;10391947;28;20041;-55
2022/07/28 05:08:42;;;;;;;4.05;1.42;;;21.90;56.60;;;;;;10383659;28;20599;-59
2022/07/28 05:13:43;;;;;;;2.75;1.15;;;21.90;56.70;;;;;;10389889;28;20041;-53
2022/07/28 05:18:44;;;;;;;5.13;1.20;;;22.00;56.70;;;;;;10382969;28;20036;-54
2022/07/28 05:23:44;;;;;;;2.60;1.00;;;22.00;57.10;;;;;;10383090;28;20033;-52
2022/07/28 05:28:45;;;;;;;2.88;1.42;;;21.90;56.90;;;;;;10413883;28;20024;-50
2022/07/28 05:33:46;;;;;;;2.45;1.15;;;21.90;57.00;;;;;;10384977;28;20072;-52
2022/07/28 05:38:46;;;;;;;3.53;1.15;;;21.90;57.10;;;;;;10395210;28;20041;-53
2022/07/28 05:43:47;;;;;;;5.45;1.30;;;21.90;56.70;;;;;;10394317;28;20041;-51
2022/07/28 05:48:48;;;;;;;5.78;1.98;;;21.90;57.10;;;;;;10409332;28;20105;-51
2022/07/28 05:53:49;;;;;;;6.55;1.23;;;21.90;57.10;;;;;;10392956;28;20163;-53
2022/07/28 05:58:49;;;;;;;5.22;1.50;;;21.90;56.90;;;;;;10394442;28;20059;-51
2022/07/28 06:03:51;;;;;;;8.57;1.20;;;22.00;57.20;;;;;;10398867;28;20029;-51
2022/07/28 06:08:52;;;;;;;4.95;1.45;;;22.00;57.20;;;;;;10402036;28;20062;-55
2022/07/28 06:13:53;;;;;;;4.70;1.50;;;21.90;57.70;;;;;;10381965;28;20040;-54
2022/07/28 06:18:54;;;;;;;7.55;1.00;;;21.90;57.70;;;;;;10382821;28;20035;-54
2022/07/28 06:23:54;;;;;;;3.95;1.08;;;21.90;57.80;;;;;;10376440;28;20166;-54
2022/07/28 06:28:55;;;;;;;3.88;1.00;;;21.90;57.70;;;;;;10379387;28;20112;-54
2022/07/28 06:33:56;;;;;;;5.03;1.20;;;21.90;57.50;;;;;;10363737;28;20113;-54
2022/07/28 06:38:56;;;;;;;2.45;1.00;;;21.90;57.20;;;;;;10374670;28;20108;-54
2022/07/28 06:43:57;;;;;;;3.58;0.93;;;21.90;57.20;;;;;;10386845;28;20080;-54
2022/07/28 06:48:58;;;;;;;4.47;1.10;;;21.80;57.20;;;;;;10407310;28;20033;-54
2022/07/28 06:53:58;;;;;;;2.85;1.30;;;21.80;57.10;;;;;;10413471;28;20033;-54
2022/07/28 06:58:59;;;;;;;3.55;1.02;;;21.80;57.10;;;;;;10414614;28;20029;-54
2022/07/28 07:04:00;;;;;;;3.60;1.08;;;21.80;57.10;;;;;;10387273;28;20121;-53
2022/07/28 07:09:00;;;;;;;3.60;0.90;;;21.80;57.20;;;;;;10378828;28;20030;-52
2022/07/28 07:14:01;;;;;;;2.78;1.05;;;21.80;57.00;;;;;;10386153;28;20038;-54
2022/07/28 07:19:02;;;;;;;2.13;0.90;;;21.80;57.10;;;;;;10373737;28;20033;-54
2022/07/28 07:24:03;;;;;;;2.25;1.08;;;21.80;57.00;;;;;;10402069;28;20104;-54
2022/07/28 07:29:06;;;;;;;2.42;0.98;;;21.80;57.70;;;;;;10401868;28;20053;-54
2022/07/28 07:34:06;;;;;;;1.83;0.73;;;21.80;57.10;;;;;;10383675;28;20148;-55
2022/07/28 07:39:08;;;;;;;2.08;0.80;;;21.70;57.10;;;;;;10373462;28;20715;-54
2022/07/28 07:44:09;;;;;;;2.97;0.98;;;21.70;57.00;;;;;;10371293;28;20037;-54
2022/07/28 07:49:09;;;;;;;1.95;1.08;;;21.80;57.00;;;;;;10372135;28;20485;-53
2022/07/28 07:54:10;;;;;;;2.92;1.00;;;21.70;56.70;;;;;;10381699;28;20116;-51
2022/07/28 07:59:11;;;;;;;2.38;0.65;;;21.80;56.90;;;;;;10372922;28;20036;-53
2022/07/28 08:04:12;;;;;;;2.22;0.75;;;21.80;56.90;;;;;;10388527;28;20171;-54
2022/07/28 08:09:13;;;;;;;3.13;0.77;;;21.80;56.40;;;;;;10373146;28;20026;-53
2022/07/28 08:14:14;;;;;;;2.65;0.70;;;21.80;55.90;;;;;;10369321;28;20038;-56
2022/07/28 08:19:15;;;;;;;5.25;0.95;;;21.80;55.70;;;;;;10382160;28;20478;-53
2022/07/28 08:24:16;;;;;;;3.38;1.02;;;21.80;55.80;;;;;;10398393;28;20349;-55
2022/07/28 08:29:17;;;;;;;2.38;1.30;;;21.80;55.70;;;;;;10390850;28;20032;-53
2022/07/28 08:34:17;;;;;;;1.55;0.60;;;21.90;56.30;;;;;;10382504;28;20493;-55
2022/07/28 08:39:18;;;;;;;2.40;0.85;;;21.90;55.80;;;;;;10369697;28;20400;-54
2022/07/28 08:44:25;;;;;;;1.25;0.60;;;21.90;55.70;;;;;;10369523;28;20409;-53
2022/07/28 08:49:27;;;;;;;1.83;0.82;;;21.90;55.70;;;;;;10369175;28;20436;-54
2022/07/28 08:54:29;;;;;;;2.95;1.38;;;21.90;55.60;;;;;;10367960;28;20109;-53
2022/07/28 08:59:30;;;;;;;2.03;0.60;;;21.90;55.40;;;;;;10351116;28;20366;-54
2022/07/28 09:04:35;;;;;;;1.17;0.82;;;21.90;55.50;;;;;;10379589;28;20038;-53
2022/07/28 09:09:38;;;;;;;1.63;0.63;;;21.90;55.50;;;;;;10368583;28;20056;-53
2022/07/28 09:14:39;;;;;;;3.45;0.60;;;22.00;55.30;;;;;;10367872;28;20033;-53
2022/07/28 09:19:40;;;;;;;1.23;0.50;;;21.90;55.10;;;;;;10368142;28;20116;-53
2022/07/28 09:24:43;;;;;;;1.70;1.13;;;22.00;55.30;;;;;;10374708;28;20042;-54
2022/07/28 09:29:47;;;;;;;1.75;0.82;;;22.00;55.30;;;;;;10383179;28;20053;-53
2022/07/28 09:34:49;;;;;;;1.05;0.52;;;22.00;55.30;;;;;;10380641;28;20044;-54
2022/07/28 09:39:57;;;;;;;1.42;0.60;;;22.00;55.00;;;;;;10367954;28;20029;-52
2022/07/28 09:45:07;;;;;;;1.47;0.67;;;22.00;55.10;;;;;;10395217;28;20041;-52
2022/07/28 09:50:19;;;;;;;1.33;0.70;;;22.00;54.90;;;;;;10393160;28;20472;-54
2022/07/28 09:55:20;;;;;;;1.42;0.98;;;22.00;54.90;;;;;;10390267;28;20366;-53
2022/07/28 10:00:27;;;;;;;1.23;0.60;;;22.00;54.70;;;;;;10382814;28;20034;-52
2022/07/28 10:05:40;;;;;;;1.55;1.00;;;22.00;54.90;;;;;;10375425;28;20034;-52
2022/07/28 10:10:40;;;;;;;1.40;0.82;;;22.00;55.00;;;;;;10397111;28;20571;-53
2022/07/28 10:21:06;;;;;;;1.08;0.50;;;22.10;54.50;;;;;;10392828;28;20021;-54
2022/07/28 10:26:10;;;;;;;1.20;0.70;;;22.10;54.80;;;;;;10378928;28;20104;-53
2022/07/28 10:31:16;;;;;;;0.73;0.50;;;22.10;54.90;;;;;;10390232;28;20113;-54
2022/07/28 10:36:23;;;;;;;1.10;0.80;;;22.10;55.10;;;;;;10365780;28;20033;-54
2022/07/28 10:41:28;;;;;;;1.23;0.60;;;22.10;55.20;;;;;;10365557;28;20046;-53
2022/07/28 10:46:30;;;;;;;1.92;0.90;;;22.10;55.00;;;;;;10392172;28;20033;-54
2022/07/28 10:51:31;;;;;;;2.30;0.60;;;22.20;55.20;;;;;;10406665;28;20029;-52
2022/07/28 10:56:32;;;;;;;1.27;0.65;;;22.20;55.00;;;;;;10391472;28;20105;-53
2022/07/28 11:01:38;;;;;;;2.03;0.60;;;22.20;55.10;;;;;;10404962;28;20476;-54
2022/07/28 11:06:40;;;;;;;1.33;0.55;;;22.20;55.10;;;;;;10406490;28;20100;-54
2022/07/28 11:11:57;;;;;;;2.75;0.75;;;22.20;55.10;;;;;;10421106;28;20026;-53
2022/07/28 11:17:03;;;;;;;1.40;0.60;;;22.30;55.40;;;;;;10406411;28;20037;-52
2022/07/28 11:22:23;;;;;;;0.80;0.50;;;22.30;56.00;;;;;;10405920;28;20091;-54
2022/07/28 11:27:42;;;;;;;0.57;0.30;;;22.30;56.20;;;;;;10405212;28;20038;-54
2022/07/28 11:32:49;;;;;;;0.95;0.60;;;22.30;56.50;;;;;;10388186;28;20037;-53
2022/07/28 11:38:02;;;;;;;1.55;0.70;;;22.30;56.60;;;;;;10388443;28;20038;-54
2022/07/28 11:43:21;;;;;;;0.70;0.50;;;22.30;56.70;;;;;;10371718;28;20101;-54
2022/07/28 11:48:22;;;;;;;1.05;0.68;;;22.30;56.70;;;;;;10384237;28;20030;-53
2022/07/28 11:53:24;;;;;;;0.85;0.57;;;22.30;56.70;;;;;;10378530;28;20736;-54
2022/07/28 11:58:25;;;;;;;0.60;0.45;;;22.30;56.70;;;;;;10385390;28;20101;-52
2022/07/28 12:03:33;;;;;;;2.90;0.75;;;22.40;56.80;;;;;;10385130;28;20595;-53
2022/07/28 12:08:55;;;;;;;2.55;0.50;;;22.40;56.70;;;;;;10399760;28;20034;-53
2022/07/28 12:14:08;;;;;;;3.25;0.80;;;22.40;56.60;;;;;;10387733;28;20052;-53
2022/07/28 12:19:13;;;;;;;1.80;0.85;;;22.40;56.70;;;;;;10399838;28;20120;-53
2022/07/28 12:24:34;;;;;;;4.97;0.77;;;22.40;56.50;;;;;;10378329;28;20038;-52
2022/07/28 12:29:36;;;;;;;3.38;1.13;;;22.40;56.50;;;;;;10388312;28;20028;-53
2022/07/28 12:34:38;;;;;;;1.88;0.57;;;22.40;56.60;;;;;;10384335;28;20481;-51
2022/07/28 12:39:41;;;;;;;3.03;1.10;;;22.40;56.60;;;;;;10378347;28;20026;-53
2022/07/28 12:44:46;;;;;;;2.38;0.45;;;22.40;56.60;;;;;;10377701;28;20072;-53
2022/07/28 12:49:50;;;;;;;1.85;0.60;;;22.40;56.70;;;;;;10385409;28;20037;-53
2022/07/28 12:54:52;;;;;;;1.52;0.68;;;22.50;56.80;;;;;;10392852;28;20032;-52
2022/07/28 13:00:06;;;;;;;0.98;0.45;;;22.50;56.60;;;;;;10400058;28;20032;-53
2022/07/28 13:05:07;;;;;;;1.13;0.50;;;22.50;56.60;;;;;;10399111;28;20121;-53
2022/07/28 13:10:09;;;;;;;0.63;0.50;;;22.40;56.70;;;;;;10400072;28;20048;-52
2022/07/28 13:15:16;;;;;;;1.50;0.60;;;22.40;56.70;;;;;;10389464;28;20030;-51
2022/07/28 13:20:19;;;;;;;1.27;1.17;;;22.40;56.60;;;;;;10407990;28;20116;-50
2022/07/28 13:25:20;;;;;;;1.35;0.55;;;22.40;56.40;;;;;;10391048;28;20034;-51
2022/07/28 13:30:21;;;;;;;0.95;0.60;;;22.40;56.80;;;;;;10389325;28;20053;-53
2022/07/28 13:35:22;;;;;;;0.80;0.50;;;22.40;56.40;;;;;;10398413;28;20380;-52
2022/07/28 13:40:23;;;;;;;0.93;0.80;;;22.50;56.60;;;;;;10412925;28;20030;-50
2022/07/28 13:45:23;;;;;;;1.27;0.60;;;22.50;56.60;;;;;;10412369;28;20489;-52
2022/07/28 13:50:24;;;;;;;1.38;0.77;;;22.50;56.50;;;;;;10383190;28;20045;-54
2022/07/28 13:55:25;;;;;;;0.73;0.50;;;22.50;56.60;;;;;;10379885;28;20027;-53
2022/07/28 14:00:26;;;;;;;1.13;0.60;;;22.50;56.50;;;;;;10371261;28;20026;-52
2022/07/28 14:05:27;;;;;;;1.13;0.40;;;22.40;55.90;;;;;;10371755;28;20030;-53
2022/07/28 14:10:27;;;;;;;0.73;0.50;;;22.40;56.50;;;;;;10384322;28;20113;-50
2022/07/28 14:15:28;;;;;;;0.63;0.50;;;22.30;56.60;;;;;;10395519;28;20117;-53
2022/07/28 14:20:29;;;;;;;1.15;0.60;;;22.30;56.50;;;;;;10379493;28;20036;-53
2022/07/28 14:25:30;;;;;;;2.08;0.50;;;22.30;56.40;;;;;;10376015;28;20515;-52
2022/07/28 14:30:32;;;;;;;1.30;0.80;;;22.30;55.80;;;;;;10395076;28;20048;-52
2022/07/28 14:35:32;;;;;;;0.93;0.60;;;22.30;56.20;;;;;;10390186;28;20374;-53
2022/07/28 14:40:35;;;;;;;1.30;0.60;;;22.30;56.00;;;;;;10396929;28;20046;-53
2022/07/28 14:45:36;;;;;;;1.05;0.57;;;22.30;55.80;;;;;;10411566;28;20041;-52
2022/07/28 14:50:37;;;;;;;0.75;0.65;;;22.30;56.30;;;;;;10396640;28;20109;-53
2022/07/28 14:55:37;;;;;;;1.40;0.50;;;22.30;56.40;;;;;;10387776;28;20037;-52
2022/07/28 15:00:38;;;;;;;1.27;0.68;;;22.30;56.10;;;;;;10371743;28;20025;-52
2022/07/28 15:05:39;;;;;;;0.90;0.60;;;22.30;56.20;;;;;;10414110;28;20488;-52
2022/07/28 15:10:40;;;;;;;1.33;0.82;;;22.30;56.10;;;;;;10417521;28;20026;-53
2022/07/28 15:15:40;;;;;;;1.30;0.60;;;22.30;56.50;;;;;;10406004;28;20033;-49
2022/07/28 15:20:42;;;;;;;1.00;0.60;;;22.30;56.10;;;;;;10383853;28;20097;-53
2022/07/28 15:25:45;;;;;;;1.05;0.85;;;22.20;56.10;;;;;;10389047;28;20027;-52
2022/07/28 15:30:50;;;;;;;1.45;0.63;;;22.30;56.10;;;;;;10401412;28;20033;-48
2022/07/28 15:35:51;;;;;;;4.30;1.70;;;22.30;56.10;;;;;;10390655;28;20029;-51
2022/07/28 15:40:51;;;;;;;60.88;54.60;;;22.30;58.30;;;;;;10377057;28;20045;-51
2022/07/28 15:45:55;;;;;;;28.92;26.02;;;22.30;58.10;;;;;;10377150;28;20499;-49
2022/07/28 15:50:56;;;;;;;5.50;3.58;;;22.30;58.30;;;;;;10415400;28;20061;-51
2022/07/28 15:55:57;;;;;;;4.18;2.50;;;22.30;55.80;;;;;;10390170;28;20520;-51
2022/07/28 16:00:57;;;;;;;4.80;2.65;;;22.30;54.20;;;;;;10408481;28;20060;-51
2022/07/28 16:05:58;;;;;;;4.03;2.30;;;22.30;53.70;;;;;;10402530;28;20029;-51
2022/07/28 16:10:59;;;;;;;10.60;8.82;;;22.30;53.60;;;;;;10391094;28;20037;-46
2022/07/28 16:16:00;;;;;;;8.00;5.57;;;22.30;54.60;;;;;;10414655;28;20033;-53
2022/07/28 16:21:01;;;;;;;16.48;6.47;;;22.60;56.80;;;;;;10394230;28;20036;-53
2022/07/28 16:26:06;;;;;;;9.57;6.68;;;22.70;56.40;;;;;;10375719;28;20367;-58
2022/07/28 16:31:07;;;;;;;10.00;6.88;;;22.70;57.30;;;;;;10395477;28;20096;-55
2022/07/28 16:36:07;;;;;;;7.40;4.70;;;22.60;56.80;;;;;;10387533;28;20046;-56
2022/07/28 16:41:10;;;;;;;17.10;6.75;;;22.60;56.70;;;;;;10389847;28;20116;-53
2022/07/28 16:46:11;;;;;;;12.18;3.92;;;22.60;55.80;;;;;;10374341;28;20061;-55
2022/07/28 16:51:12;;;;;;;12.82;3.40;;;22.60;55.40;;;;;;10407257;28;20030;-55
2022/07/28 16:56:16;;;;;;;9.13;3.20;;;22.60;55.20;;;;;;10397423;28;20033;-53
2022/07/28 17:01:16;;;;;;;12.55;2.90;;;22.60;54.10;;;;;;10383868;28;20053;-52
2022/07/28 17:06:17;;;;;;;6.82;2.70;;;22.60;53.90;;;;;;10392557;28;20527;-50
2022/07/28 17:11:18;;;;;;;7.45;2.78;;;22.60;53.00;;;;;;10406216;28;20045;-52
2022/07/28 17:16:18;;;;;;;9.40;2.95;;;22.50;52.60;;;;;;10396210;28;20095;-55
2022/07/28 17:21:19;;;;;;;8.82;3.15;;;22.50;52.90;;;;;;10387132;28;20040;-51
2022/07/28 17:26:20;;;;;;;6.40;2.15;;;22.50;52.80;;;;;;10384798;28;20120;-54
2022/07/28 17:31:20;;;;;;;5.05;1.90;;;22.50;52.40;;;;;;10388478;28;20042;-49
2022/07/28 17:36:21;;;;;;;5.72;2.05;;;22.50;53.10;;;;;;10406447;28;20044;-49
2022/07/28 17:41:22;;;;;;;5.28;2.08;;;22.50;53.90;;;;;;10411335;28;20045;-49
2022/07/28 17:46:23;;;;;;;7.82;2.20;;;22.50;54.20;;;;;;10409858;28;20025;-47
2022/07/28 17:51:23;;;;;;;17.42;2.92;;;22.40;54.10;;;;;;10379497;28;20036;-50
2022/07/28 17:56:24;;;;;;;24.40;3.35;;;22.40;54.10;;;;;;10367996;28;20033;-51
2022/07/28 18:01:25;;;;;;;12.43;3.10;;;22.40;54.20;;;;;;10371559;28;20037;-50
2022/07/28 18:06:32;;;;;;;14.43;2.55;;;22.40;54.90;;;;;;10367965;28;20136;-50
2022/07/28 18:11:38;;;;;;;11.10;2.53;;;22.40;55.30;;;;;;10367980;28;20041;-51
2022/07/28 18:16:39;;;;;;;8.23;2.33;;;22.40;55.50;;;;;;10367926;28;20025;-50
2022/07/28 18:21:40;;;;;;;5.28;2.00;;;22.40;55.60;;;;;;10381455;28;20112;-47
2022/07/28 18:26:40;;;;;;;9.13;2.22;;;22.40;55.70;;;;;;10375895;28;20033;-49
2022/07/28 18:31:41;;;;;;;7.03;2.00;;;22.40;55.50;;;;;;10391636;28;20108;-50
2022/07/28 18:36:42;;;;;;;9.40;2.38;;;22.40;56.10;;;;;;10392124;28;20032;-50
2022/07/28 18:41:43;;;;;;;3.80;1.45;;;22.30;56.00;;;;;;10389203;28;20514;-50
2022/07/28 18:46:43;;;;;;;5.75;2.20;;;22.30;56.10;;;;;;10386053;28;20025;-52
2022/07/28 18:51:44;;;;;;;11.73;2.00;;;22.30;56.20;;;;;;10395044;28;20033;-53
2022/07/28 18:56:45;;;;;;;5.93;2.30;;;22.40;57.00;;;;;;10388587;28;20523;-51
2022/07/28 19:01:46;;;;;;;8.30;2.25;;;22.40;57.70;;;;;;10395359;28;20091;-51
2022/07/28 19:06:46;;;;;;;6.28;2.00;;;22.40;57.00;;;;;;10386037;28;20136;-51
2022/07/28 19:11:47;;;;;;;4.55;1.50;;;22.40;57.10;;;;;;10406442;28;20037;-49
2022/07/28 19:16:48;;;;;;;5.43;2.00;;;22.40;57.00;;;;;;10391001;28;20034;-51
2022/07/28 19:21:49;;;;;;;6.03;1.65;;;22.40;57.20;;;;;;10403813;28;20401;-51
2022/07/28 19:26:50;;;;;;;5.70;1.80;;;22.30;57.20;;;;;;10384878;28;20037;-52
2022/07/28 19:31:51;;;;;;;4.45;1.58;;;22.30;56.80;;;;;;10393087;28;20025;-53
2022/07/28 19:36:51;;;;;;;6.05;2.03;;;22.30;56.60;;;;;;10387779;28;20481;-51
2022/07/28 19:41:52;;;;;;;4.35;1.73;;;22.30;56.60;;;;;;10391365;28;20394;-50
2022/07/28 19:46:54;;;;;;;2.28;1.27;;;22.30;56.50;;;;;;10370567;28;20049;-48
2022/07/28 19:51:55;;;;;;;2.95;1.83;;;22.30;56.40;;;;;;10384331;28;20459;-50
2022/07/28 19:56:56;;;;;;;4.22;1.58;;;22.30;56.30;;;;;;10381771;28;20029;-52
2022/07/28 20:01:57;;;;;;;3.75;1.02;;;22.30;56.30;;;;;;10387951;28;20501;-53
2022/07/28 20:06:58;;;;;;;2.47;1.13;;;22.30;56.20;;;;;;10402930;28;20045;-52
2022/07/28 20:11:58;;;;;;;1.90;1.20;;;22.30;56.20;;;;;;10388669;28;20033;-52
2022/07/28 20:16:59;;;;;;;1.60;0.95;;;22.30;56.10;;;;;;10425152;28;20033;-51
2022/07/28 20:22:00;;;;;;;2.58;1.30;;;22.40;56.20;;;;;;10383653;28;20038;-52
2022/07/28 20:27:02;;;;;;;2.22;1.00;;;22.40;56.70;;;;;;10405720;28;20079;-50
2022/07/28 20:32:03;;;;;;;1.85;1.15;;;22.40;56.10;;;;;;10389644;28;20042;-48
2022/07/28 20:37:04;;;;;;;2.15;0.98;;;22.40;56.10;;;;;;10383383;28;20030;-51
2022/07/28 20:42:06;;;;;;;2.08;0.80;;;22.40;56.00;;;;;;10369791;28;20505;-52
2022/07/28 20:47:07;;;;;;;2.03;1.20;;;22.40;56.10;;;;;;10370843;28;20089;-52
2022/07/28 20:52:08;;;;;;;2.00;1.10;;;22.40;56.00;;;;;;10370781;28;20179;-51
2022/07/28 20:57:09;;;;;;;2.50;1.10;;;22.40;55.90;;;;;;10368798;28;20034;-52
2022/07/28 21:02:10;;;;;;;2.30;1.02;;;22.30;55.90;;;;;;10403250;28;20117;-50
2022/07/28 21:07:11;;;;;;;1.38;0.80;;;22.30;56.00;;;;;;10410072;28;20071;-50
2022/07/28 21:12:12;;;;;;;2.72;1.00;;;22.30;56.10;;;;;;10389175;28;20080;-52
2022/07/28 21:17:12;;;;;;;1.85;1.10;;;22.30;56.00;;;;;;10369679;28;20545;-50
2022/07/28 21:22:13;;;;;;;2.60;1.42;;;22.30;56.00;;;;;;10375609;28;20029;-51
2022/07/28 21:27:16;;;;;;;2.35;1.08;;;22.30;56.00;;;;;;10371799;28;20033;-50
2022/07/28 21:32:17;;;;;;;2.53;1.00;;;22.30;56.00;;;;;;10384361;28;20041;-52
2022/07/28 21:37:18;;;;;;;2.88;0.90;;;22.30;56.10;;;;;;10367909;28;20038;-52
2022/07/28 21:42:19;;;;;;;1.08;0.70;;;22.30;56.10;;;;;;10397205;28;20559;-50
2022/07/28 21:47:20;;;;;;;2.35;0.80;;;22.30;56.10;;;;;;10381716;28;20112;-48
2022/07/28 21:52:20;;;;;;;1.55;0.90;;;22.30;56.00;;;;;;10399410;28;20551;-51
2022/07/28 21:57:21;;;;;;;1.73;0.90;;;22.30;56.10;;;;;;10382333;28;20481;-52
2022/07/28 22:02:22;;;;;;;1.75;0.85;;;22.30;56.10;;;;;;10368647;28;20116;-52
2022/07/28 22:07:23;;;;;;;2.35;1.08;;;22.30;56.10;;;;;;10368225;28;20163;-51
2022/07/28 22:12:23;;;;;;;3.50;1.00;;;22.30;56.20;;;;;;10382849;28;20049;-52
2022/07/28 22:17:24;;;;;;;2.88;0.95;;;22.30;56.20;;;;;;10373804;28;20048;-51
2022/07/28 22:22:25;;;;;;;1.48;0.80;;;22.30;56.10;;;;;;10399305;28;20087;-52
2022/07/28 22:27:25;;;;;;;2.22;0.80;;;22.30;56.10;;;;;;10393611;28;20120;-50
2022/07/28 22:32:26;;;;;;;1.90;1.02;;;22.30;56.20;;;;;;10394737;28;20037;-52
2022/07/28 22:37:27;;;;;;;2.45;0.60;;;22.30;56.20;;;;;;10367408;28;20042;-51
2022/07/28 22:42:28;;;;;;;1.38;0.98;;;22.30;56.10;;;;;;10374738;28;20053;-51
2022/07/28 22:47:28;;;;;;;1.50;0.90;;;22.30;56.10;;;;;;10391813;28;20029;-50
2022/07/28 22:52:29;;;;;;;2.25;0.90;;;22.20;56.10;;;;;;10392868;28;20033;-51
2022/07/28 22:57:30;;;;;;;2.70;0.95;;;22.30;56.20;;;;;;10367585;28;20022;-50
2022/07/28 23:02:31;;;;;;;1.70;1.08;;;22.30;56.20;;;;;;10372277;28;20125;-52
2022/07/28 23:07:31;;;;;;;2.65;1.08;;;22.20;56.20;;;;;;10367284;28;20022;-53
2022/07/28 23:12:32;;;;;;;1.70;1.00;;;22.20;56.20;;;;;;10395372;28;20074;-49
2022/07/28 23:17:33;;;;;;;1.27;0.85;;;22.20;56.20;;;;;;10373410;28;20041;-52
2022/07/28 23:22:33;;;;;;;2.63;0.73;;;22.20;56.20;;;;;;10395910;28;20048;-50
2022/07/28 23:27:34;;;;;;;1.60;0.90;;;22.20;56.20;;;;;;10374882;28;20662;-52
2022/07/28 23:32:35;;;;;;;2.50;0.98;;;22.20;56.10;;;;;;10420672;28;20064;-50
2022/07/28 23:37:36;;;;;;;2.45;1.05;;;22.20;56.10;;;;;;10400212;28;20159;-51
2022/07/28 23:42:36;;;;;;;2.05;0.82;;;22.20;56.20;;;;;;10383899;28;20563;-49
2022/07/28 23:47:37;;;;;;;2.10;0.85;;;22.20;56.20;;;;;;10377851;28;20034;-50
2022/07/28 23:52:37;;;;;;;0.98;0.70;;;22.20;56.20;;;;;;10410701;28;20033;-50
2022/07/28 23:57:38;;;;;;;1.58;0.70;;;22.20;56.20;;;;;;10387622;28;20029;-48
